RYR78ZM LIEE-LICJ
Flight info
| Callsign | RYR78ZM |
|---|---|
| Flight time | 0h 43m |
| Altitude | 30000 |
| Route | CAR M871 NEVOT DCT ADAMI DCT KAPIL M871 PAL |
| Aircraft | B738/M-SDE2E3FGHIRWXY/LB1 |
Departure
| Time | 2026-04-29 18:04 |
|---|---|
| Airport | Cagliari Elmas Airport (LIEE) |
Arrival
| Time | 2026-04-29 18:48 |
|---|---|
| Airport | Falcone–Borsellino Airport (LICJ) |
| Time | Latitude | Longitude | Altitude | Speed | Heading |
|---|---|---|---|---|---|
| 2026-04-29 17:17 | 39.25403 | 9.05914 | 14 ft | 0 kts | 142° |
| 2026-04-29 17:53 | 39.25407 | 9.05911 | 14 ft | 3 kts | 142° |
| 2026-04-29 17:53 | 39.25428 | 9.05889 | 14 ft | 4 kts | 142° |
| 2026-04-29 17:54 | 39.25444 | 9.05874 | 16 ft | 4 kts | 167° |
| 2026-04-29 17:54 | 39.25458 | 9.05881 | 16 ft | 4 kts | 232° |
| 2026-04-29 17:54 | 39.25468 | 9.05898 | 16 ft | 1 kts | 232° |
| 2026-04-29 17:57 | 39.25468 | 9.05897 | 16 ft | 1 kts | 232° |
| 2026-04-29 17:57 | 39.25443 | 9.05856 | 15 ft | 9 kts | 232° |
| 2026-04-29 17:57 | 39.25389 | 9.05768 | 14 ft | 14 kts | 232° |
| 2026-04-29 17:57 | 39.25345 | 9.05692 | 14 ft | 10 kts | 247° |
| 2026-04-29 17:58 | 39.25374 | 9.05616 | 14 ft | 10 kts | 304° |
| 2026-04-29 17:58 | 39.25396 | 9.05535 | 15 ft | 9 kts | 282° |
| 2026-04-29 17:58 | 39.25409 | 9.05453 | 16 ft | 9 kts | 285° |
| 2026-04-29 17:58 | 39.25440 | 9.05375 | 14 ft | 11 kts | 303° |
| 2026-04-29 17:59 | 39.25505 | 9.05288 | 14 ft | 16 kts | 318° |
| 2026-04-29 17:59 | 39.25600 | 9.05178 | 14 ft | 20 kts | 318° |
| 2026-04-29 17:59 | 39.25710 | 9.05050 | 14 ft | 22 kts | 318° |
| 2026-04-29 17:59 | 39.25819 | 9.04923 | 14 ft | 21 kts | 318° |
| 2026-04-29 18:00 | 39.25926 | 9.04799 | 14 ft | 20 kts | 318° |
| 2026-04-29 18:00 | 39.26029 | 9.04680 | 14 ft | 20 kts | 318° |
| 2026-04-29 18:00 | 39.26107 | 9.04587 | 14 ft | 10 kts | 307° |
| 2026-04-29 18:00 | 39.26122 | 9.04507 | 14 ft | 5 kts | 275° |
| 2026-04-29 18:01 | 39.26122 | 9.04505 | 14 ft | 0 kts | 275° |
| 2026-04-29 18:02 | 39.26122 | 9.04503 | -13 ft | 1 kts | 275° |
| 2026-04-29 18:02 | 39.26123 | 9.04461 | 14 ft | 8 kts | 265° |
| 2026-04-29 18:03 | 39.26092 | 9.04396 | 14 ft | 9 kts | 221° |
| 2026-04-29 18:03 | 39.26036 | 9.04402 | 15 ft | 9 kts | 141° |
| 2026-04-29 18:03 | 39.25969 | 9.04479 | 13 ft | 27 kts | 138° |
| 2026-04-29 18:03 | 39.25642 | 9.04856 | 16 ft | 99 kts | 138° |
| 2026-04-29 18:04 | 39.24967 | 9.05634 | 21 ft | 158 kts | 140° |
| 2026-04-29 18:04 | 39.24113 | 9.06615 | 675 ft | 160 kts | 142° |
| 2026-04-29 18:04 | 39.23290 | 9.07547 | 1634 ft | 158 kts | 138° |
| 2026-04-29 18:04 | 39.22422 | 9.08540 | 2173 ft | 175 kts | 139° |
| 2026-04-29 18:05 | 39.21468 | 9.09645 | 2698 ft | 192 kts | 139° |
| 2026-04-29 18:05 | 39.20415 | 9.10870 | 3010 ft | 212 kts | 139° |
| 2026-04-29 18:05 | 39.19305 | 9.12170 | 3647 ft | 219 kts | 139° |
| 2026-04-29 18:05 | 39.18169 | 9.13504 | 4388 ft | 223 kts | 139° |
| 2026-04-29 18:06 | 39.16971 | 9.14894 | 4806 ft | 245 kts | 140° |
| 2026-04-29 18:06 | 39.15647 | 9.16418 | 5254 ft | 261 kts | 140° |
| 2026-04-29 18:06 | 39.14272 | 9.18003 | 5951 ft | 268 kts | 139° |
| 2026-04-29 18:06 | 39.12856 | 9.19635 | 6566 ft | 279 kts | 139° |
| 2026-04-29 18:07 | 39.11394 | 9.21319 | 7257 ft | 283 kts | 139° |
| 2026-04-29 18:07 | 39.09913 | 9.23027 | 7960 ft | 289 kts | 140° |
| 2026-04-29 18:07 | 39.08398 | 9.24774 | 8677 ft | 294 kts | 139° |
| 2026-04-29 18:07 | 39.06866 | 9.26538 | 9396 ft | 299 kts | 139° |
| 2026-04-29 18:08 | 39.05303 | 9.28336 | 10111 ft | 303 kts | 139° |
| 2026-04-29 18:08 | 39.03693 | 9.30193 | 10458 ft | 322 kts | 137° |
| 2026-04-29 18:08 | 39.02356 | 9.32610 | 10671 ft | 344 kts | 112° |
| 2026-04-29 18:08 | 39.01928 | 9.35658 | 11183 ft | 353 kts | 85° |
| 2026-04-29 18:09 | 39.02614 | 9.38663 | 11837 ft | 354 kts | 57° |
| 2026-04-29 18:09 | 39.04173 | 9.41103 | 12543 ft | 354 kts | 44° |
| 2026-04-29 18:09 | 39.05897 | 9.43409 | 13201 ft | 361 kts | 44° |
| 2026-04-29 18:09 | 39.07627 | 9.45787 | 13880 ft | 367 kts | 45° |
| 2026-04-29 18:10 | 39.09245 | 9.48352 | 14530 ft | 374 kts | 59° |
| 2026-04-29 18:10 | 39.10107 | 9.51517 | 15266 ft | 379 kts | 82° |
| 2026-04-29 18:10 | 39.10048 | 9.54898 | 15996 ft | 381 kts | 103° |
| 2026-04-29 18:10 | 39.09256 | 9.58155 | 16684 ft | 384 kts | 111° |
| 2026-04-29 18:11 | 39.08328 | 9.61403 | 17348 ft | 388 kts | 112° |
| 2026-04-29 18:11 | 39.07381 | 9.64671 | 18025 ft | 393 kts | 112° |
| 2026-04-29 18:11 | 39.06437 | 9.67987 | 18652 ft | 396 kts | 111° |
| 2026-04-29 18:11 | 39.05505 | 9.71339 | 19262 ft | 399 kts | 111° |
| 2026-04-29 18:12 | 39.04576 | 9.74714 | 19870 ft | 402 kts | 111° |
| 2026-04-29 18:12 | 39.03641 | 9.78116 | 20461 ft | 406 kts | 111° |
| 2026-04-29 18:12 | 39.02689 | 9.81552 | 21036 ft | 409 kts | 111° |
| 2026-04-29 18:12 | 39.01725 | 9.85010 | 21612 ft | 412 kts | 111° |
| 2026-04-29 18:13 | 39.00752 | 9.88493 | 22178 ft | 416 kts | 111° |
| 2026-04-29 18:13 | 38.99771 | 9.92001 | 22730 ft | 419 kts | 111° |
| 2026-04-29 18:13 | 38.98781 | 9.95541 | 23292 ft | 422 kts | 111° |
| 2026-04-29 18:13 | 38.97784 | 9.99100 | 23797 ft | 425 kts | 111° |
| 2026-04-29 18:14 | 38.96779 | 10.02685 | 24270 ft | 427 kts | 111° |
| 2026-04-29 18:14 | 38.95768 | 10.06289 | 24751 ft | 429 kts | 111° |
| 2026-04-29 18:14 | 38.94755 | 10.09895 | 25220 ft | 431 kts | 111° |
| 2026-04-29 18:14 | 38.93732 | 10.13531 | 25693 ft | 433 kts | 111° |
| 2026-04-29 18:15 | 38.92711 | 10.17155 | 26291 ft | 430 kts | 111° |
| 2026-04-29 18:15 | 38.91698 | 10.20750 | 26944 ft | 427 kts | 111° |
| 2026-04-29 18:15 | 38.90688 | 10.24325 | 27561 ft | 425 kts | 111° |
| 2026-04-29 18:15 | 38.89681 | 10.27884 | 28117 ft | 424 kts | 111° |
| 2026-04-29 18:16 | 38.88687 | 10.31392 | 28641 ft | 424 kts | 111° |
| 2026-04-29 18:16 | 38.87680 | 10.34943 | 29216 ft | 422 kts | 112° |
| 2026-04-29 18:16 | 38.86673 | 10.38486 | 29461 ft | 428 kts | 112° |
| 2026-04-29 18:16 | 38.85646 | 10.42093 | 29344 ft | 430 kts | 112° |
| 2026-04-29 18:17 | 38.84627 | 10.45673 | 29058 ft | 423 kts | 112° |
| 2026-04-29 18:17 | 38.82644 | 10.52629 | 29021 ft | 414 kts | 112° |
| 2026-04-29 18:18 | 38.80650 | 10.59591 | 29004 ft | 416 kts | 112° |
| 2026-04-29 18:18 | 38.78695 | 10.66412 | 28986 ft | 400 kts | 112° |
| 2026-04-29 18:19 | 38.76780 | 10.73069 | 29013 ft | 399 kts | 112° |
| 2026-04-29 18:19 | 38.75817 | 10.76408 | 28709 ft | 401 kts | 112° |
| 2026-04-29 18:19 | 38.74857 | 10.79734 | 28460 ft | 395 kts | 112° |
| 2026-04-29 18:19 | 38.73905 | 10.83031 | 28086 ft | 392 kts | 112° |
| 2026-04-29 18:20 | 38.72964 | 10.86288 | 27722 ft | 389 kts | 112° |
| 2026-04-29 18:20 | 38.72028 | 10.89523 | 27352 ft | 387 kts | 112° |
| 2026-04-29 18:20 | 38.71094 | 10.92746 | 26993 ft | 384 kts | 112° |
| 2026-04-29 18:20 | 38.70164 | 10.95947 | 26519 ft | 385 kts | 112° |
| 2026-04-29 18:21 | 38.69233 | 10.99152 | 26141 ft | 383 kts | 112° |
| 2026-04-29 18:21 | 38.68306 | 11.02339 | 25781 ft | 381 kts | 112° |
| 2026-04-29 18:21 | 38.67383 | 11.05512 | 25416 ft | 380 kts | 112° |
| 2026-04-29 18:21 | 38.66463 | 11.08673 | 25066 ft | 378 kts | 112° |
| 2026-04-29 18:22 | 38.65548 | 11.11811 | 24708 ft | 376 kts | 112° |
| 2026-04-29 18:22 | 38.64633 | 11.14946 | 24355 ft | 375 kts | 112° |
| 2026-04-29 18:22 | 38.63721 | 11.18069 | 23989 ft | 374 kts | 112° |
| 2026-04-29 18:22 | 38.62824 | 11.21135 | 23650 ft | 373 kts | 112° |
| 2026-04-29 18:23 | 38.61913 | 11.24246 | 23229 ft | 373 kts | 112° |
| 2026-04-29 18:23 | 38.60995 | 11.27378 | 22849 ft | 370 kts | 112° |
| 2026-04-29 18:23 | 38.60396 | 11.29420 | 22608 ft | 369 kts | 112° |
| 2026-04-29 18:23 | 38.59196 | 11.33507 | 22133 ft | 366 kts | 112° |
| 2026-04-29 18:24 | 38.58604 | 11.35520 | 21903 ft | 364 kts | 112° |
| 2026-04-29 18:24 | 38.57715 | 11.38539 | 21563 ft | 362 kts | 112° |
| 2026-04-29 18:24 | 38.56832 | 11.41536 | 21224 ft | 360 kts | 112° |
| 2026-04-29 18:24 | 38.55953 | 11.44515 | 20886 ft | 358 kts | 112° |
| 2026-04-29 18:25 | 38.55077 | 11.47482 | 20554 ft | 356 kts | 112° |
| 2026-04-29 18:25 | 38.54204 | 11.50434 | 20215 ft | 354 kts | 112° |
| 2026-04-29 18:25 | 38.53337 | 11.53365 | 19885 ft | 352 kts | 112° |
| 2026-04-29 18:25 | 38.52474 | 11.56277 | 19552 ft | 351 kts | 112° |
| 2026-04-29 18:26 | 38.51607 | 11.59197 | 19222 ft | 350 kts | 112° |
| 2026-04-29 18:26 | 38.50734 | 11.62137 | 18889 ft | 348 kts | 112° |
| 2026-04-29 18:26 | 38.49888 | 11.64984 | 18567 ft | 347 kts | 112° |
| 2026-04-29 18:26 | 38.49032 | 11.67860 | 18231 ft | 346 kts | 112° |
| 2026-04-29 18:27 | 38.48179 | 11.70727 | 17847 ft | 345 kts | 112° |
| 2026-04-29 18:27 | 38.47326 | 11.73586 | 17506 ft | 344 kts | 112° |
| 2026-04-29 18:27 | 38.46478 | 11.76428 | 17169 ft | 342 kts | 112° |
| 2026-04-29 18:27 | 38.45634 | 11.79252 | 16838 ft | 340 kts | 112° |
| 2026-04-29 18:28 | 38.44795 | 11.82056 | 16514 ft | 337 kts | 112° |
| 2026-04-29 18:28 | 38.43961 | 11.84843 | 16193 ft | 336 kts | 112° |
| 2026-04-29 18:28 | 38.43130 | 11.87617 | 15872 ft | 334 kts | 112° |
| 2026-04-29 18:28 | 38.42302 | 11.90376 | 15555 ft | 332 kts | 112° |
| 2026-04-29 18:29 | 38.41478 | 11.93120 | 15241 ft | 330 kts | 112° |
| 2026-04-29 18:29 | 38.40658 | 11.95846 | 14923 ft | 329 kts | 112° |
| 2026-04-29 18:29 | 38.39841 | 11.98563 | 14601 ft | 328 kts | 112° |
| 2026-04-29 18:29 | 38.39026 | 12.01271 | 14294 ft | 327 kts | 112° |
| 2026-04-29 18:30 | 38.38212 | 12.03971 | 13978 ft | 325 kts | 112° |
| 2026-04-29 18:30 | 38.37402 | 12.06656 | 13646 ft | 324 kts | 112° |
| 2026-04-29 18:30 | 38.36592 | 12.09338 | 13296 ft | 323 kts | 112° |
| 2026-04-29 18:30 | 38.35786 | 12.12003 | 12968 ft | 321 kts | 111° |
| 2026-04-29 18:31 | 38.35143 | 12.14722 | 12647 ft | 320 kts | 103° |
| 2026-04-29 18:31 | 38.34696 | 12.17490 | 12335 ft | 318 kts | 101° |
| 2026-04-29 18:31 | 38.34305 | 12.20251 | 12017 ft | 316 kts | 101° |
| 2026-04-29 18:31 | 38.33920 | 12.22992 | 11705 ft | 315 kts | 101° |
| 2026-04-29 18:32 | 38.33525 | 12.25736 | 11395 ft | 313 kts | 101° |
| 2026-04-29 18:32 | 38.32716 | 12.31156 | 10764 ft | 310 kts | 102° |
| 2026-04-29 18:32 | 38.32305 | 12.33841 | 10467 ft | 308 kts | 102° |
| 2026-04-29 18:33 | 38.31893 | 12.36514 | 10165 ft | 307 kts | 102° |
| 2026-04-29 18:33 | 38.31486 | 12.39138 | 10037 ft | 299 kts | 102° |
| 2026-04-29 18:33 | 38.31082 | 12.41725 | 9719 ft | 298 kts | 102° |
| 2026-04-29 18:33 | 38.30679 | 12.44304 | 9414 ft | 296 kts | 102° |
| 2026-04-29 18:34 | 38.30277 | 12.46869 | 9111 ft | 294 kts | 103° |
| 2026-04-29 18:34 | 38.30012 | 12.48557 | 8914 ft | 293 kts | 103° |
| 2026-04-29 18:34 | 38.29479 | 12.51945 | 8523 ft | 290 kts | 103° |
| 2026-04-29 18:34 | 38.29083 | 12.54456 | 8234 ft | 289 kts | 103° |
| 2026-04-29 18:35 | 38.28689 | 12.56951 | 7949 ft | 287 kts | 103° |
| 2026-04-29 18:35 | 38.28298 | 12.59427 | 7662 ft | 285 kts | 103° |
| 2026-04-29 18:35 | 38.27908 | 12.61894 | 7367 ft | 284 kts | 103° |
| 2026-04-29 18:35 | 38.27524 | 12.64316 | 7092 ft | 282 kts | 103° |
| 2026-04-29 18:36 | 38.27142 | 12.66720 | 6817 ft | 281 kts | 104° |
| 2026-04-29 18:36 | 38.26766 | 12.69123 | 6753 ft | 270 kts | 104° |
| 2026-04-29 18:36 | 38.26408 | 12.71447 | 6790 ft | 267 kts | 104° |
| 2026-04-29 18:36 | 38.26049 | 12.73774 | 6823 ft | 268 kts | 103° |
| 2026-04-29 18:37 | 38.25694 | 12.76135 | 6815 ft | 269 kts | 100° |
| 2026-04-29 18:37 | 38.25820 | 12.78515 | 6828 ft | 272 kts | 77° |
| 2026-04-29 18:37 | 38.26364 | 12.80830 | 6824 ft | 274 kts | 74° |
| 2026-04-29 18:37 | 38.26955 | 12.83130 | 6819 ft | 274 kts | 74° |
| 2026-04-29 18:38 | 38.27547 | 12.85411 | 6625 ft | 280 kts | 73° |
| 2026-04-29 18:38 | 38.28184 | 12.87855 | 6120 ft | 290 kts | 73° |
| 2026-04-29 18:38 | 38.28824 | 12.90298 | 5748 ft | 291 kts | 73° |
| 2026-04-29 18:38 | 38.29460 | 12.92714 | 5513 ft | 286 kts | 73° |
| 2026-04-29 18:39 | 38.30094 | 12.95111 | 5251 ft | 283 kts | 73° |
| 2026-04-29 18:39 | 38.30716 | 12.97459 | 5058 ft | 277 kts | 73° |
| 2026-04-29 18:39 | 38.31322 | 12.99740 | 5003 ft | 266 kts | 73° |
| 2026-04-29 18:39 | 38.31900 | 13.01917 | 5007 ft | 262 kts | 73° |
| 2026-04-29 18:40 | 38.32492 | 13.04155 | 5009 ft | 264 kts | 73° |
| 2026-04-29 18:40 | 38.33075 | 13.06368 | 5015 ft | 265 kts | 73° |
| 2026-04-29 18:40 | 38.33661 | 13.08601 | 5011 ft | 266 kts | 73° |
| 2026-04-29 18:40 | 38.34244 | 13.10836 | 5010 ft | 267 kts | 73° |
| 2026-04-29 18:41 | 38.33810 | 13.17331 | 5015 ft | 257 kts | 122° |
| 2026-04-29 18:41 | 38.32899 | 13.19294 | 4902 ft | 257 kts | 122° |
| 2026-04-29 18:42 | 38.32030 | 13.21256 | 4771 ft | 251 kts | 120° |
| 2026-04-29 18:42 | 38.31206 | 13.23206 | 4640 ft | 244 kts | 120° |
| 2026-04-29 18:42 | 38.30444 | 13.25062 | 4531 ft | 236 kts | 119° |
| 2026-04-29 18:42 | 38.29692 | 13.26915 | 4279 ft | 235 kts | 119° |
| 2026-04-29 18:43 | 38.28948 | 13.28758 | 4058 ft | 233 kts | 119° |
| 2026-04-29 18:43 | 38.28205 | 13.30586 | 3815 ft | 231 kts | 122° |
| 2026-04-29 18:43 | 38.27066 | 13.31965 | 3561 ft | 222 kts | 159° |
| 2026-04-29 18:43 | 38.25598 | 13.32025 | 3317 ft | 216 kts | 200° |
| 2026-04-29 18:44 | 38.24487 | 13.30819 | 3074 ft | 214 kts | 242° |
| 2026-04-29 18:44 | 38.24067 | 13.29033 | 2833 ft | 210 kts | 253° |
| 2026-04-29 18:44 | 38.23647 | 13.27270 | 2561 ft | 206 kts | 248° |
| 2026-04-29 18:44 | 38.23126 | 13.25587 | 2286 ft | 203 kts | 244° |
| 2026-04-29 18:45 | 38.22574 | 13.23946 | 2021 ft | 201 kts | 244° |
| 2026-04-29 18:45 | 38.22026 | 13.22327 | 1749 ft | 197 kts | 245° |
| 2026-04-29 18:45 | 38.21491 | 13.20738 | 1494 ft | 192 kts | 245° |
| 2026-04-29 18:45 | 38.20973 | 13.19196 | 1250 ft | 188 kts | 245° |
| 2026-04-29 18:46 | 38.20465 | 13.17689 | 995 ft | 181 kts | 245° |
| 2026-04-29 18:46 | 38.19997 | 13.16294 | 794 ft | 164 kts | 246° |
| 2026-04-29 18:46 | 38.19556 | 13.14982 | 567 ft | 160 kts | 247° |
| 2026-04-29 18:46 | 38.19122 | 13.13691 | 399 ft | 158 kts | 248° |
| 2026-04-29 18:47 | 38.18698 | 13.12414 | 207 ft | 155 kts | 248° |
| 2026-04-29 18:47 | 38.18276 | 13.11166 | 68 ft | 143 kts | 248° |
| 2026-04-29 18:47 | 38.17958 | 13.10211 | 59 ft | 89 kts | 247° |
| 2026-04-29 18:47 | 38.17752 | 13.09603 | 69 ft | 65 kts | 247° |
| 2026-04-29 18:48 | 38.17590 | 13.09119 | 69 ft | 47 kts | 247° |
| 2026-04-29 18:48 | 38.17507 | 13.08876 | 63 ft | 14 kts | 246° |
| 2026-04-29 18:48 | 38.17502 | 13.08767 | 64 ft | 12 kts | 312° |
| 2026-04-29 18:48 | 38.17574 | 13.08798 | 58 ft | 12 kts | 37° |
| 2026-04-29 18:49 | 38.17640 | 13.08861 | 64 ft | 12 kts | 36° |
| 2026-04-29 18:49 | 38.17706 | 13.08920 | 63 ft | 11 kts | 35° |
| 2026-04-29 18:49 | 38.17753 | 13.08998 | 64 ft | 11 kts | 66° |
| 2026-04-29 18:49 | 38.17784 | 13.09086 | 64 ft | 11 kts | 66° |
| 2026-04-29 18:50 | 38.17810 | 13.09174 | 70 ft | 10 kts | 72° |
| 2026-04-29 18:50 | 38.17839 | 13.09257 | 64 ft | 10 kts | 64° |
| 2026-04-29 18:50 | 38.17869 | 13.09342 | 65 ft | 12 kts | 67° |
| 2026-04-29 18:50 | 38.17907 | 13.09452 | 60 ft | 14 kts | 66° |
| 2026-04-29 18:51 | 38.17944 | 13.09564 | 63 ft | 13 kts | 67° |
| 2026-04-29 18:51 | 38.17980 | 13.09670 | 62 ft | 13 kts | 67° |
| 2026-04-29 18:51 | 38.18014 | 13.09772 | 61 ft | 12 kts | 67° |
| 2026-04-29 18:51 | 38.18047 | 13.09869 | 60 ft | 12 kts | 66° |
| 2026-04-29 18:52 | 38.18080 | 13.09964 | 62 ft | 12 kts | 67° |
| 2026-04-29 18:52 | 38.18111 | 13.10057 | 59 ft | 11 kts | 67° |
| 2026-04-29 18:52 | 38.18132 | 13.10119 | 65 ft | 4 kts | 67° |
| 2026-04-29 18:52 | 38.18169 | 13.10152 | 63 ft | 9 kts | 1° |
| 2026-04-29 18:53 | 38.18225 | 13.10129 | 63 ft | 9 kts | 338° |
| 2026-04-29 18:53 | 38.18285 | 13.10097 | 63 ft | 9 kts | 337° |
| 2026-04-29 18:53 | 38.18329 | 13.10092 | 58 ft | 6 kts | 38° |
| 2026-04-29 18:53 | 38.18345 | 13.10128 | 58 ft | 3 kts | 66° |
| 2026-04-29 18:54 | 38.18348 | 13.10136 | 64 ft | 0 kts | 66° |